Nearby METAR Reports

 

KSJC - San Jose, California, USA
Distance from station: NE 14km
Actualización: 18/10/2021 08:53
Few Clouds
Few Clouds
 Viento del calm
Viento: Calma
Temperatura: 12°C
Rocío: 7°C
Humedad: 72%
Barómetro: 1015.2 hPa
Clouds: Few Clouds
Visibilidad: 16 km
Cloud details: Few Clouds 488 m
2021/10/18 06:53 KSJC 180653Z 00000KT 10SM FEW016 12/07 A2998 RMK AO2 SLP150 LAST T01170072
KNUQ - Moffett Nas/Mtn, California, USA
Distance from station: N 14km
Actualización: 22/08/2021 13:40
NOT Current
Cubierto
Cubierto
 Viento del SSE
Viento: SSE 11 km/h
Temperatura: 16°C
Rocío: 12°C
Humedad: 77%
Barómetro: 1009.8 hPa
Clouds: Cubierto
Visibilidad: 16 km
Cloud details: Cubierto 549 m
2021/08/22 11:40 KNUQ 221140Z AUTO 16006KT 10SM OVC018 16/12 A2982 RMK AO2
 
KPAO - Palo Alto, California, USA
Distance from station: NNO 23km
Actualización: 18/10/2021 01:47
NOT Current
Muy nuboso
Muy nuboso
 Viento del SO
Viento: SO 13 km/h, Racha: 31 km/h
Temperatura: 17°C
Rocío: 9°C
Humedad: 59%
Barómetro: 1011.9 hPa
Clouds: Muy nuboso
Visibilidad: 16 km
Cloud details: Few Clouds 610 m
Muy nuboso 3658 m
2021/10/17 23:47 KPAO 172347Z 23007G17KT 10SM FEW020 BKN120 17/09 A2988
KRHV - San Jose/Reid, California, USA
Distance from station: ENE 19km
Actualización: 18/10/2021 06:50
NOT Current
Parcialmente nuboso
Parcialmente nuboso
 Viento del N
Viento: N 7 km/h
Temperatura: 12°C
Rocío: 8°C
Humedad: 77%
Barómetro: 1014.6 hPa
Clouds: Parcialmente nuboso
Visibilidad: 16 km
Cloud details: Few Clouds 457 m
Parcialmente nuboso 914 m
2021/10/18 04:50 KRHV 180450Z 01004KT 10SM FEW015 SCT030 12/08 A2996 RMK LAST
 
KOAK - Oakland, California, USA
Distance from station: NNO 50km
Actualización: 18/10/2021 09:00
Muy nuboso
Muy nuboso
 Viento del O
Viento: O 22 km/h
Temperatura: 13°C
Rocío: 8°C
Humedad: 72%
Barómetro: 1014.9 hPa
Clouds: Muy nuboso
Visibilidad: 16 km
Cloud details: Muy nuboso 762 m
Muy nuboso 1067 m
2021/10/18 07:00 KOAK 180700Z 28012KT 10SM BKN025 BKN035 13/08 A2997 RMK AO2 T01330083
KSQL - San Carlos Airpo, California, USA
Distance from station: NO 34km
Actualización: 18/10/2021 09:15
Despejado
Despejado
 Viento del calm
Viento: Calma
Temperatura: 12°C
Rocío: 7°C
Humedad: 72%
Barómetro: 1015.6 hPa
Clouds: Despejado
Visibilidad: 16 km
2021/10/18 07:15 KSQL 180715Z AUTO 00000KT 10SM CLR 12/07 A2999 RMK AO2
 
KSFO - San Francisco, California, USA
Distance from station: NO 49km
Actualización: 18/10/2021 08:56
Parcialmente nuboso
Parcialmente nuboso
 Viento del O
Viento: O 15 km/h
Temperatura: 12°C
Rocío: 7°C
Humedad: 72%
Barómetro: 1014.9 hPa
Clouds: Parcialmente nuboso
Visibilidad: 16 km
Cloud details: Few Clouds 152 m
Parcialmente nuboso 732 m
2021/10/18 06:56 KSFO 180656Z 28008KT 10SM FEW005 SCT024 12/07 A2997 RMK AO2 SLP147 T01220072
KE16 - San Martin, California, USA
Distance from station: ESE 43km
Actualización: 18/10/2021 09:15
Muy nuboso
Muy nuboso
 Viento del calm
Viento: Calma
Temperatura: 9°C
Rocío: 8°C
Humedad: 94%
Barómetro: 1015.9 hPa
Clouds: Muy nuboso
Visibilidad: 16 km
Cloud details: Muy nuboso 1250 m
2021/10/18 07:15 KE16 180715Z AUTO 00000KT 10SM BKN041 09/08 A3000 RMK AO2 PWINO PNO
 
KWVI - Watsonville, California, USA
Distance from station: SSE 44km
Actualización: 18/10/2021 08:53
Despejado
Despejado
 Viento del calm
Viento: Calma
Temperatura: 10°C
Rocío: 8°C
Humedad: 88%
Barómetro: 1015.9 hPa
Clouds: Despejado
Visibilidad: 16 km
2021/10/18 06:53 KWVI 180653Z AUTO 00000KT 10SM CLR 10/08 A3000 RMK AO2 SLP157 T01000083
KHAF - Half Moon Bay, California, USA
Distance from station: ONO 50km
Actualización: 18/10/2021 09:15
Few Clouds
Few Clouds
 Viento del NO
Viento: NO 7 km/h
Temperatura: 11°C
Rocío: 9°C
Humedad: 88%
Barómetro: 1015.2 hPa
Clouds: Few Clouds
Visibilidad: 11 km
Cloud details: Few Clouds 884 m
Few Clouds 1158 m
Few Clouds 1433 m
2021/10/18 07:15 KHAF 180715Z AUTO 32004KT 7SM FEW029 FEW038 FEW047 11/09 A2998 RMK AO2
 
KHWD - Hayward, California, USA
Distance from station: N 44km
Actualización: 18/10/2021 08:54
Parcialmente nuboso
Parcialmente nuboso
 Viento del ONO
Viento: ONO 20 km/h
Temperatura: 12°C
Rocío: 7°C
Humedad: 72%
Barómetro: 1014.6 hPa
Clouds: Parcialmente nuboso
Visibilidad: 16 km
Cloud details: Few Clouds 853 m
Parcialmente nuboso 1067 m
Parcialmente nuboso 1311 m
2021/10/18 06:54 KHWD 180654Z AUTO 29011KT 10SM FEW028 SCT035 SCT043 12/07 A2996 RMK AO2 SLP156 T01220067
KLVK - Livermore, California, USA
Distance from station: NNE 51km
Actualización: 18/10/2021 08:53
Parcialmente nuboso
Parcialmente nuboso
 Viento del OSO
Viento: OSO 26 km/h
Temperatura: 11°C
Rocío: 8°C
Humedad: 82%
Barómetro: 1014.2 hPa
Clouds: Parcialmente nuboso
Visibilidad: 16 km
Cloud details: Few Clouds 732 m
Parcialmente nuboso 1006 m
2021/10/18 06:53 KLVK 180653Z AUTO 25014KT 10SM FEW024 SCT033 11/08 A2995 RMK AO2 RAB0555E27 SLP137 P0003 T01110078